PWSweather.com
Personal Weather Stations
Station Observations
WD4JKH
Forsyth, GA 31029

Forsyth, GA 31029

Lat: 33.033225, Lon: -83.927995

Elevation: 709

Station Type: Davis Vantage VUE

High Low Average
Temperature 88.1°F31.2°C 69.9°F21.1°C 76.2°F24.6°C
Dew Point 76.3°F24.6°C 68.9°F20.5°C 72.4°F22.4°C
Winds 9.8 mph 15.8 kmh Calm Calm 2.0 mph SW3.2 kmh SW
Wind Gusts 23.0 mph37.0 kmh -- 6.0 mph9.7 kmh
Humidity 98% 61% 89%
Pressure 29.93 in1013.5 mb 29.79 in1008.8 mb -
Precipitation 0.46 in11.7 mm - -
Hour Temp Dew Point Humidity Winds Wind Gusts Pressure Precip Precip Rate Daily Precip Total
12:04 AM 69.7°F20.9°C 69.1°F20.6°C 98% 1.4 mph SW2.3 kmh SW 3.0 mph4.8 kmh 29.93 in1013.5 mb 0.00 in0.0 mm 0.00 in0.0 mm 0.67 in17.0 mm
12:09 AM 69.7°F20.9°C 69.1°F20.6°C 98% 1.1 mph SW1.8 kmh SW 3.0 mph4.8 kmh 29.93 in1013.5 mb 0.00 in0.0 mm 0.00 in0.0 mm 0.00 in0.0 mm
12:14 AM 69.7°F20.9°C 69.1°F20.6°C 98% 2.1 mph SW3.4 kmh SW 3.0 mph4.8 kmh 29.93 in1013.5 mb 0.00 in0.0 mm 0.00 in0.0 mm 0.00 in0.0 mm
12:19 AM 69.7°F20.9°C 69.1°F20.6°C 98% 1.0 mph SW1.6 kmh SW 3.0 mph4.8 kmh 29.93 in1013.5 mb 0.00 in0.0 mm 0.00 in0.0 mm 0.00 in0.0 mm
12:24 AM 69.7°F20.9°C 69.1°F20.6°C 98% Calm Calm 3.0 mph4.8 kmh 29.93 in1013.5 mb 0.00 in0.0 mm 0.00 in0.0 mm 0.00 in0.0 mm
12:29 AM 69.7°F20.9°C 69.1°F20.6°C 98% 1.0 mph SW1.6 kmh SW 3.0 mph4.8 kmh 29.93 in1013.5 mb 0.00 in0.0 mm 0.00 in0.0 mm 0.00 in0.0 mm
12:34 AM 69.8°F21.0°C 69.2°F20.7°C 98% Calm Calm 2.0 mph3.2 kmh 29.93 in1013.5 mb 0.00 in0.0 mm 0.00 in0.0 mm 0.00 in0.0 mm
12:39 AM 69.8°F21.0°C 69.2°F20.7°C 98% 1.0 mph SW1.6 kmh SW 2.0 mph3.2 kmh 29.93 in1013.5 mb 0.00 in0.0 mm 0.00 in0.0 mm 0.00 in0.0 mm
12:44 AM 69.8°F21.0°C 69.2°F20.7°C 98% Calm Calm 2.0 mph3.2 kmh 29.93 in1013.5 mb 0.00 in0.0 mm 0.00 in0.0 mm 0.00 in0.0 mm
12:49 AM 69.8°F21.0°C 69.2°F20.7°C 98% Calm Calm 1.0 mph1.6 kmh 29.93 in1013.5 mb 0.00 in0.0 mm 0.00 in0.0 mm 0.00 in0.0 mm
12:54 AM 69.9°F21.1°C 69.3°F20.7°C 98% Calm Calm 1.0 mph1.6 kmh 29.93 in1013.5 mb 0.00 in0.0 mm 0.00 in0.0 mm 0.00 in0.0 mm
12:59 AM 69.9°F21.1°C 69.3°F20.7°C 98% Calm Calm 1.0 mph1.6 kmh 29.93 in1013.5 mb 0.00 in0.0 mm 0.00 in0.0 mm 0.00 in0.0 mm
01:04 AM 69.9°F21.1°C 69.3°F20.7°C 98% 1.1 mph SW1.8 kmh SW 2.0 mph3.2 kmh 29.93 in1013.5 mb 0.00 in0.0 mm 0.00 in0.0 mm 0.00 in0.0 mm
01:09 AM 69.9°F21.1°C 69.3°F20.7°C 98% 1.0 mph SW1.6 kmh SW 2.0 mph3.2 kmh 29.93 in1013.5 mb 0.00 in0.0 mm 0.00 in0.0 mm 0.00 in0.0 mm
01:14 AM 69.9°F21.1°C 69.3°F20.7°C 98% 1.0 mph SW1.6 kmh SW 2.0 mph3.2 kmh 29.93 in1013.5 mb 0.00 in0.0 mm 0.00 in0.0 mm 0.00 in0.0 mm
01:19 AM 69.9°F21.1°C 69.3°F20.7°C 98% Calm Calm 2.0 mph3.2 kmh 29.93 in1013.5 mb 0.00 in0.0 mm 0.00 in0.0 mm 0.00 in0.0 mm
01:24 AM 69.9°F21.1°C 69.3°F20.7°C 98% Calm Calm 1.0 mph1.6 kmh 29.92 in1013.2 mb 0.00 in0.0 mm 0.00 in0.0 mm 0.00 in0.0 mm
01:29 AM 70.0°F21.1°C 69.4°F20.8°C 98% Calm Calm 1.0 mph1.6 kmh 29.92 in1013.2 mb 0.00 in0.0 mm 0.00 in0.0 mm 0.00 in0.0 mm
01:34 AM 70.0°F21.1°C 69.4°F20.8°C 98% Calm Calm -- 29.92 in1013.2 mb 0.00 in0.0 mm 0.00 in0.0 mm 0.00 in0.0 mm
01:39 AM 70.0°F21.1°C 69.4°F20.8°C 98% Calm Calm -- 29.92 in1013.2 mb 0.00 in0.0 mm 0.00 in0.0 mm 0.00 in0.0 mm
01:44 AM 70.1°F21.2°C 69.5°F20.8°C 98% Calm Calm 1.0 mph1.6 kmh 29.92 in1013.2 mb 0.00 in0.0 mm 0.00 in0.0 mm 0.00 in0.0 mm
01:49 AM 70.1°F21.2°C 69.5°F20.8°C 98% Calm Calm 1.0 mph1.6 kmh 29.92 in1013.2 mb 0.00 in0.0 mm 0.00 in0.0 mm 0.00 in0.0 mm
01:54 AM 70.1°F21.2°C 69.5°F20.8°C 98% 1.7 mph SW2.7 kmh SW 3.0 mph4.8 kmh 29.92 in1013.2 mb 0.00 in0.0 mm 0.00 in0.0 mm 0.00 in0.0 mm
01:59 AM 70.1°F21.2°C 69.5°F20.8°C 98% 1.0 mph SW1.6 kmh SW 3.0 mph4.8 kmh 29.91 in1012.9 mb 0.00 in0.0 mm 0.00 in0.0 mm 0.00 in0.0 mm
02:04 AM 70.2°F21.2°C 69.6°F20.9°C 98% Calm Calm 3.0 mph4.8 kmh 29.92 in1013.2 mb 0.00 in0.0 mm 0.00 in0.0 mm 0.00 in0.0 mm
02:09 AM 70.2°F21.2°C 69.6°F20.9°C 98% Calm Calm 3.0 mph4.8 kmh 29.91 in1012.9 mb 0.00 in0.0 mm 0.00 in0.0 mm 0.00 in0.0 mm
02:14 AM 70.2°F21.2°C 69.6°F20.9°C 98% Calm Calm 1.0 mph1.6 kmh 29.91 in1012.9 mb 0.00 in0.0 mm 0.00 in0.0 mm 0.00 in0.0 mm
02:19 AM 70.2°F21.2°C 69.6°F20.9°C 98% Calm Calm 1.0 mph1.6 kmh 29.91 in1012.9 mb 0.00 in0.0 mm 0.00 in0.0 mm 0.00 in0.0 mm
02:24 AM 70.2°F21.2°C 69.6°F20.9°C 98% 1.0 mph SSW1.6 kmh SSW 1.0 mph1.6 kmh 29.91 in1012.9 mb 0.00 in0.0 mm 0.00 in0.0 mm 0.00 in0.0 mm
02:29 AM 70.1°F21.2°C 69.5°F20.8°C 98% Calm Calm 1.0 mph1.6 kmh 29.91 in1012.9 mb 0.00 in0.0 mm 0.00 in0.0 mm 0.00 in0.0 mm
02:34 AM 70.2°F21.2°C 69.6°F20.9°C 98% 1.0 mph SW1.6 kmh SW 1.0 mph1.6 kmh 29.91 in1012.9 mb 0.00 in0.0 mm 0.00 in0.0 mm 0.00 in0.0 mm
02:39 AM 70.3°F21.3°C 69.7°F20.9°C 98% 1.0 mph WSW1.6 kmh WSW 1.0 mph1.6 kmh 29.91 in1012.9 mb 0.00 in0.0 mm 0.00 in0.0 mm 0.00 in0.0 mm
02:44 AM 70.3°F21.3°C 69.7°F20.9°C 98% 1.0 mph WSW1.6 kmh WSW 1.0 mph1.6 kmh 29.91 in1012.9 mb 0.00 in0.0 mm 0.00 in0.0 mm 0.00 in0.0 mm
02:49 AM 70.2°F21.2°C 69.6°F20.9°C 98% 1.0 mph SW1.6 kmh SW 2.0 mph3.2 kmh 29.91 in1012.9 mb 0.00 in0.0 mm 0.00 in0.0 mm 0.00 in0.0 mm
02:54 AM 70.3°F21.3°C 69.7°F20.9°C 98% Calm Calm 2.0 mph3.2 kmh 29.91 in1012.9 mb 0.00 in0.0 mm 0.00 in0.0 mm 0.00 in0.0 mm
02:59 AM 70.4°F21.3°C 69.8°F21.0°C 98% Calm Calm 2.0 mph3.2 kmh 29.91 in1012.9 mb 0.00 in0.0 mm 0.00 in0.0 mm 0.00 in0.0 mm
03:04 AM 70.4°F21.3°C 69.8°F21.0°C 98% 1.0 mph W1.6 kmh W 1.0 mph1.6 kmh 29.91 in1012.9 mb 0.00 in0.0 mm 0.00 in0.0 mm 0.00 in0.0 mm
03:09 AM 70.5°F21.4°C 69.9°F21.1°C 98% 1.5 mph WSW2.4 kmh WSW 3.0 mph4.8 kmh 29.91 in1012.9 mb 0.00 in0.0 mm 0.00 in0.0 mm 0.00 in0.0 mm
03:14 AM 70.5°F21.4°C 69.9°F21.1°C 98% Calm Calm 3.0 mph4.8 kmh 29.90 in1012.5 mb 0.00 in0.0 mm 0.00 in0.0 mm 0.00 in0.0 mm
03:19 AM 70.5°F21.4°C 69.9°F21.1°C 98% 1.0 mph WSW1.6 kmh WSW 3.0 mph4.8 kmh 29.90 in1012.5 mb 0.00 in0.0 mm 0.00 in0.0 mm 0.00 in0.0 mm
03:24 AM 70.5°F21.4°C 69.9°F21.1°C 98% 1.0 mph SW1.6 kmh SW 3.0 mph4.8 kmh 29.90 in1012.5 mb 0.00 in0.0 mm 0.00 in0.0 mm 0.00 in0.0 mm
03:29 AM 70.5°F21.4°C 69.9°F21.1°C 98% 1.0 mph WSW1.6 kmh WSW 1.0 mph1.6 kmh 29.90 in1012.5 mb 0.00 in0.0 mm 0.00 in0.0 mm 0.00 in0.0 mm
03:34 AM 70.5°F21.4°C 69.9°F21.1°C 98% 1.0 mph SW1.6 kmh SW 1.0 mph1.6 kmh 29.90 in1012.5 mb 0.00 in0.0 mm 0.00 in0.0 mm 0.00 in0.0 mm
03:39 AM 70.6°F21.4°C 70.0°F21.1°C 98% 1.0 mph SW1.6 kmh SW 2.0 mph3.2 kmh 29.90 in1012.5 mb 0.00 in0.0 mm 0.00 in0.0 mm 0.00 in0.0 mm
03:44 AM 70.5°F21.4°C 69.9°F21.1°C 98% Calm Calm 2.0 mph3.2 kmh 29.90 in1012.5 mb 0.00 in0.0 mm 0.00 in0.0 mm 0.00 in0.0 mm
03:49 AM 70.5°F21.4°C 69.9°F21.1°C 98% Calm Calm 2.0 mph3.2 kmh 29.90 in1012.5 mb 0.00 in0.0 mm 0.00 in0.0 mm 0.00 in0.0 mm
03:54 AM 70.5°F21.4°C 69.9°F21.1°C 98% 1.0 mph SW1.6 kmh SW 1.0 mph1.6 kmh 29.89 in1012.2 mb 0.00 in0.0 mm 0.00 in0.0 mm 0.00 in0.0 mm
03:59 AM 70.4°F21.3°C 69.8°F21.0°C 98% 1.0 mph SW1.6 kmh SW 1.0 mph1.6 kmh 29.89 in1012.2 mb 0.00 in0.0 mm 0.00 in0.0 mm 0.00 in0.0 mm
04:04 AM 70.4°F21.3°C 69.8°F21.0°C 98% Calm Calm 1.0 mph1.6 kmh 29.90 in1012.5 mb 0.00 in0.0 mm 0.00 in0.0 mm 0.00 in0.0 mm
04:09 AM 70.3°F21.3°C 69.7°F20.9°C 98% Calm Calm 1.0 mph1.6 kmh 29.89 in1012.2 mb 0.00 in0.0 mm 0.00 in0.0 mm 0.00 in0.0 mm
04:14 AM 70.3°F21.3°C 69.7°F20.9°C 98% 1.0 mph SW1.6 kmh SW 1.0 mph1.6 kmh 29.89 in1012.2 mb 0.00 in0.0 mm 0.00 in0.0 mm 0.00 in0.0 mm
04:19 AM 70.3°F21.3°C 69.7°F20.9°C 98% 1.0 mph SW1.6 kmh SW 1.0 mph1.6 kmh 29.89 in1012.2 mb 0.00 in0.0 mm 0.00 in0.0 mm 0.00 in0.0 mm
04:24 AM 70.4°F21.3°C 69.8°F21.0°C 98% Calm Calm 1.0 mph1.6 kmh 29.89 in1012.2 mb 0.00 in0.0 mm 0.00 in0.0 mm 0.00 in0.0 mm
04:28 AM 70.5°F21.4°C 69.9°F21.1°C 98% 1.0 mph SW1.6 kmh SW 1.0 mph1.6 kmh 29.90 in1012.5 mb 0.00 in0.0 mm 0.00 in0.0 mm 0.00 in0.0 mm
04:33 AM 70.5°F21.4°C 69.9°F21.1°C 98% 1.0 mph SW1.6 kmh SW 1.0 mph1.6 kmh 29.90 in1012.5 mb 0.00 in0.0 mm 0.00 in0.0 mm 0.00 in0.0 mm
04:38 AM 70.6°F21.4°C 70.0°F21.1°C 98% 1.8 mph SW2.9 kmh SW 2.0 mph3.2 kmh 29.90 in1012.5 mb 0.00 in0.0 mm 0.00 in0.0 mm 0.00 in0.0 mm
04:43 AM 70.6°F21.4°C 70.0°F21.1°C 98% 1.4 mph S2.3 kmh S 2.0 mph3.2 kmh 29.90 in1012.5 mb 0.00 in0.0 mm 0.00 in0.0 mm 0.00 in0.0 mm
04:48 AM 70.6°F21.4°C 70.0°F21.1°C 98% 1.4 mph SW2.3 kmh SW 3.0 mph4.8 kmh 29.90 in1012.5 mb 0.00 in0.0 mm 0.00 in0.0 mm 0.00 in0.0 mm
04:53 AM 70.7°F21.5°C 70.1°F21.2°C 98% 1.8 mph SW2.9 kmh SW 5.0 mph8.0 kmh 29.90 in1012.5 mb 0.00 in0.0 mm 0.00 in0.0 mm 0.00 in0.0 mm
04:58 AM 70.7°F21.5°C 70.1°F21.2°C 98% 1.0 mph SW1.6 kmh SW 5.0 mph8.0 kmh 29.90 in1012.5 mb 0.00 in0.0 mm 0.00 in0.0 mm 0.00 in0.0 mm
05:03 AM 70.7°F21.5°C 70.1°F21.2°C 98% 2.0 mph SW3.2 kmh SW 5.0 mph8.0 kmh 29.90 in1012.5 mb 0.00 in0.0 mm 0.00 in0.0 mm 0.00 in0.0 mm
05:08 AM 70.7°F21.5°C 70.1°F21.2°C 98% 1.2 mph SSW1.9 kmh SSW 5.0 mph8.0 kmh 29.90 in1012.5 mb 0.00 in0.0 mm 0.00 in0.0 mm 0.00 in0.0 mm
05:13 AM 70.7°F21.5°C 70.1°F21.2°C 98% 1.3 mph SW2.1 kmh SW 4.0 mph6.4 kmh 29.90 in1012.5 mb 0.00 in0.0 mm 0.00 in0.0 mm 0.00 in0.0 mm
05:18 AM 70.7°F21.5°C 70.1°F21.2°C 98% 1.5 mph SW2.4 kmh SW 4.0 mph6.4 kmh 29.90 in1012.5 mb 0.00 in0.0 mm 0.00 in0.0 mm 0.00 in0.0 mm
05:23 AM 70.7°F21.5°C 70.1°F21.2°C 98% 2.0 mph SW3.2 kmh SW 3.0 mph4.8 kmh 29.90 in1012.5 mb 0.00 in0.0 mm 0.00 in0.0 mm 0.00 in0.0 mm
05:28 AM 70.8°F21.6°C 70.2°F21.2°C 98% Calm Calm 3.0 mph4.8 kmh 29.89 in1012.2 mb 0.00 in0.0 mm 0.00 in0.0 mm 0.00 in0.0 mm
05:33 AM 70.8°F21.6°C 70.2°F21.2°C 98% 1.3 mph SW2.1 kmh SW 3.0 mph4.8 kmh 29.89 in1012.2 mb 0.00 in0.0 mm 0.00 in0.0 mm 0.00 in0.0 mm
05:38 AM 70.8°F21.6°C 70.2°F21.2°C 98% 1.0 mph SW1.6 kmh SW 3.0 mph4.8 kmh 29.89 in1012.2 mb 0.00 in0.0 mm 0.00 in0.0 mm 0.00 in0.0 mm
05:43 AM 70.8°F21.6°C 70.2°F21.2°C 98% 1.3 mph S2.1 kmh S 3.0 mph4.8 kmh 29.89 in1012.2 mb 0.00 in0.0 mm 0.00 in0.0 mm 0.00 in0.0 mm
05:48 AM 70.8°F21.6°C 70.2°F21.2°C 98% 1.5 mph SW2.4 kmh SW 3.0 mph4.8 kmh 29.89 in1012.2 mb 0.00 in0.0 mm 0.00 in0.0 mm 0.00 in0.0 mm
05:53 AM 70.9°F21.6°C 70.3°F21.3°C 98% 1.0 mph WSW1.6 kmh WSW 3.0 mph4.8 kmh 29.90 in1012.5 mb 0.00 in0.0 mm 0.00 in0.0 mm 0.00 in0.0 mm
05:58 AM 70.9°F21.6°C 70.3°F21.3°C 98% 1.0 mph SW1.6 kmh SW 3.0 mph4.8 kmh 29.90 in1012.5 mb 0.00 in0.0 mm 0.00 in0.0 mm 0.00 in0.0 mm
06:03 AM 70.9°F21.6°C 70.3°F21.3°C 98% 1.5 mph S2.4 kmh S 3.0 mph4.8 kmh 29.90 in1012.5 mb 0.00 in0.0 mm 0.00 in0.0 mm 0.00 in0.0 mm
06:08 AM 70.9°F21.6°C 70.3°F21.3°C 98% 1.9 mph SW3.1 kmh SW 4.0 mph6.4 kmh 29.90 in1012.5 mb 0.00 in0.0 mm 0.00 in0.0 mm 0.00 in0.0 mm
06:13 AM 71.0°F21.7°C 70.4°F21.3°C 98% 1.3 mph SW2.1 kmh SW 4.0 mph6.4 kmh 29.90 in1012.5 mb 0.00 in0.0 mm 0.00 in0.0 mm 0.00 in0.0 mm
06:18 AM 71.0°F21.7°C 70.4°F21.3°C 98% 1.2 mph SW1.9 kmh SW 4.0 mph6.4 kmh 29.90 in1012.5 mb 0.00 in0.0 mm 0.00 in0.0 mm 0.00 in0.0 mm
06:23 AM 71.0°F21.7°C 70.4°F21.3°C 98% 1.7 mph SW2.7 kmh SW 4.0 mph6.4 kmh 29.90 in1012.5 mb 0.00 in0.0 mm 0.00 in0.0 mm 0.00 in0.0 mm
06:28 AM 71.1°F21.7°C 70.5°F21.4°C 98% 1.0 mph SW1.6 kmh SW 5.0 mph8.0 kmh 29.90 in1012.5 mb 0.00 in0.0 mm 0.00 in0.0 mm 0.00 in0.0 mm
06:33 AM 71.1°F21.7°C 70.5°F21.4°C 98% 1.2 mph SW1.9 kmh SW 5.0 mph8.0 kmh 29.90 in1012.5 mb 0.00 in0.0 mm 0.00 in0.0 mm 0.00 in0.0 mm
06:38 AM 71.1°F21.7°C 70.5°F21.4°C 98% 1.7 mph WSW2.7 kmh WSW 5.0 mph8.0 kmh 29.90 in1012.5 mb 0.00 in0.0 mm 0.00 in0.0 mm 0.00 in0.0 mm
06:43 AM 71.2°F21.8°C 70.6°F21.4°C 98% 1.9 mph SW3.1 kmh SW 5.0 mph8.0 kmh 29.90 in1012.5 mb 0.00 in0.0 mm 0.00 in0.0 mm 0.00 in0.0 mm
06:48 AM 71.2°F21.8°C 70.6°F21.4°C 98% 1.4 mph SW2.3 kmh SW 4.0 mph6.4 kmh 29.90 in1012.5 mb 0.00 in0.0 mm 0.00 in0.0 mm 0.00 in0.0 mm
06:53 AM 71.3°F21.8°C 70.7°F21.5°C 98% Calm Calm 4.0 mph6.4 kmh 29.90 in1012.5 mb 0.00 in0.0 mm 0.00 in0.0 mm 0.00 in0.0 mm
06:58 AM 71.2°F21.8°C 70.6°F21.4°C 98% 1.8 mph SW2.9 kmh SW 4.0 mph6.4 kmh 29.90 in1012.5 mb 0.00 in0.0 mm 0.00 in0.0 mm 0.00 in0.0 mm
07:03 AM 71.3°F21.8°C 70.7°F21.5°C 98% 1.9 mph WSW3.1 kmh WSW 4.0 mph6.4 kmh 29.90 in1012.5 mb 0.00 in0.0 mm 0.00 in0.0 mm 0.00 in0.0 mm
07:08 AM 71.3°F21.8°C 70.7°F21.5°C 98% 1.6 mph SW2.6 kmh SW 4.0 mph6.4 kmh 29.90 in1012.5 mb 0.00 in0.0 mm 0.00 in0.0 mm 0.00 in0.0 mm
07:13 AM 71.4°F21.9°C 70.8°F21.6°C 98% 1.3 mph WSW2.1 kmh WSW 4.0 mph6.4 kmh 29.90 in1012.5 mb 0.00 in0.0 mm 0.00 in0.0 mm 0.00 in0.0 mm
07:18 AM 71.4°F21.9°C 70.8°F21.6°C 98% 1.1 mph SW1.8 kmh SW 4.0 mph6.4 kmh 29.90 in1012.5 mb 0.00 in0.0 mm 0.00 in0.0 mm 0.00 in0.0 mm
07:23 AM 71.4°F21.9°C 70.8°F21.6°C 98% 1.6 mph SW2.6 kmh SW 4.0 mph6.4 kmh 29.90 in1012.5 mb 0.00 in0.0 mm 0.00 in0.0 mm 0.00 in0.0 mm
07:28 AM 71.5°F21.9°C 70.9°F21.6°C 98% 1.6 mph SSW2.6 kmh SSW 3.0 mph4.8 kmh 29.90 in1012.5 mb 0.00 in0.0 mm 0.00 in0.0 mm 0.00 in0.0 mm
07:33 AM 71.4°F21.9°C 70.8°F21.6°C 98% 1.0 mph S1.6 kmh S 3.0 mph4.8 kmh 29.90 in1012.5 mb 0.00 in0.0 mm 0.00 in0.0 mm 0.00 in0.0 mm
07:38 AM 71.5°F21.9°C 70.9°F21.6°C 98% 2.3 mph SW3.7 kmh SW 3.0 mph4.8 kmh 29.90 in1012.5 mb 0.00 in0.0 mm 0.00 in0.0 mm 0.00 in0.0 mm
07:43 AM 71.5°F21.9°C 70.9°F21.6°C 98% 2.1 mph S3.4 kmh S 5.0 mph8.0 kmh 29.90 in1012.5 mb 0.00 in0.0 mm 0.00 in0.0 mm 0.00 in0.0 mm
07:48 AM 71.6°F22.0°C 71.0°F21.7°C 98% 1.5 mph SSW2.4 kmh SSW 5.0 mph8.0 kmh 29.90 in1012.5 mb 0.00 in0.0 mm 0.00 in0.0 mm 0.00 in0.0 mm
07:53 AM 71.6°F22.0°C 71.0°F21.7°C 98% 3.0 mph SW4.8 kmh SW 5.0 mph8.0 kmh 29.90 in1012.5 mb 0.00 in0.0 mm 0.00 in0.0 mm 0.00 in0.0 mm
07:58 AM 71.7°F22.1°C 71.1°F21.7°C 98% 1.6 mph S2.6 kmh S 5.0 mph8.0 kmh 29.90 in1012.5 mb 0.00 in0.0 mm 0.00 in0.0 mm 0.00 in0.0 mm
08:03 AM 71.7°F22.1°C 71.1°F21.7°C 98% 1.9 mph SW3.1 kmh SW 6.0 mph9.7 kmh 29.90 in1012.5 mb 0.00 in0.0 mm 0.00 in0.0 mm 0.00 in0.0 mm
08:08 AM 71.8°F22.1°C 71.2°F21.8°C 98% 2.3 mph SW3.7 kmh SW 6.0 mph9.7 kmh 29.90 in1012.5 mb 0.00 in0.0 mm 0.00 in0.0 mm 0.00 in0.0 mm
08:13 AM 72.0°F22.2°C 71.4°F21.9°C 98% 1.0 mph SW1.6 kmh SW 6.0 mph9.7 kmh 29.89 in1012.2 mb 0.00 in0.0 mm 0.00 in0.0 mm 0.00 in0.0 mm
08:18 AM 72.0°F22.2°C 71.4°F21.9°C 98% 1.9 mph SW3.1 kmh SW 5.0 mph8.0 kmh 29.89 in1012.2 mb 0.00 in0.0 mm 0.00 in0.0 mm 0.00 in0.0 mm
08:23 AM 72.1°F22.3°C 71.5°F21.9°C 98% 1.0 mph SW1.6 kmh SW 4.0 mph6.4 kmh 29.90 in1012.5 mb 0.00 in0.0 mm 0.00 in0.0 mm 0.00 in0.0 mm
08:28 AM 72.2°F22.3°C 71.6°F22.0°C 98% 1.5 mph SW2.4 kmh SW 3.0 mph4.8 kmh 29.90 in1012.5 mb 0.00 in0.0 mm 0.00 in0.0 mm 0.00 in0.0 mm
08:33 AM 72.3°F22.4°C 71.7°F22.1°C 98% 1.5 mph SW2.4 kmh SW 3.0 mph4.8 kmh 29.90 in1012.5 mb 0.00 in0.0 mm 0.00 in0.0 mm 0.00 in0.0 mm
08:38 AM 72.3°F22.4°C 71.7°F22.1°C 98% 2.1 mph SW3.4 kmh SW 4.0 mph6.4 kmh 29.90 in1012.5 mb 0.00 in0.0 mm 0.00 in0.0 mm 0.00 in0.0 mm
08:43 AM 72.4°F22.4°C 71.8°F22.1°C 98% 1.0 mph SW1.6 kmh SW 4.0 mph6.4 kmh 29.90 in1012.5 mb 0.00 in0.0 mm 0.00 in0.0 mm 0.00 in0.0 mm
08:48 AM 72.4°F22.4°C 71.8°F22.1°C 98% 1.0 mph SW1.6 kmh SW 4.0 mph6.4 kmh 29.90 in1012.5 mb 0.00 in0.0 mm 0.00 in0.0 mm 0.00 in0.0 mm
08:53 AM 72.4°F22.4°C 71.8°F22.1°C 98% 1.3 mph SW2.1 kmh SW 4.0 mph6.4 kmh 29.90 in1012.5 mb 0.00 in0.0 mm 0.00 in0.0 mm 0.00 in0.0 mm
08:58 AM 72.4°F22.4°C 71.8°F22.1°C 98% 1.5 mph SW2.4 kmh SW 3.0 mph4.8 kmh 29.91 in1012.9 mb 0.00 in0.0 mm 0.00 in0.0 mm 0.00 in0.0 mm
09:03 AM 72.4°F22.4°C 71.8°F22.1°C 98% 1.0 mph SW1.6 kmh SW 3.0 mph4.8 kmh 29.90 in1012.5 mb 0.00 in0.0 mm 0.00 in0.0 mm 0.00 in0.0 mm
09:08 AM 72.5°F22.5°C 71.9°F22.2°C 98% 1.3 mph SW2.1 kmh SW 3.0 mph4.8 kmh 29.90 in1012.5 mb 0.00 in0.0 mm 0.00 in0.0 mm 0.00 in0.0 mm
09:13 AM 72.5°F22.5°C 71.9°F22.2°C 98% 1.1 mph SW1.8 kmh SW 3.0 mph4.8 kmh 29.90 in1012.5 mb 0.00 in0.0 mm 0.00 in0.0 mm 0.00 in0.0 mm
09:18 AM 72.7°F22.6°C 72.1°F22.3°C 98% Calm Calm 3.0 mph4.8 kmh 29.90 in1012.5 mb 0.00 in0.0 mm 0.00 in0.0 mm 0.00 in0.0 mm
09:23 AM 72.7°F22.6°C 72.1°F22.3°C 98% 1.8 mph SW2.9 kmh SW 4.0 mph6.4 kmh 29.90 in1012.5 mb 0.00 in0.0 mm 0.00 in0.0 mm 0.00 in0.0 mm
09:28 AM 72.9°F22.7°C 72.3°F22.4°C 98% 1.0 mph SSW1.6 kmh SSW 4.0 mph6.4 kmh 29.90 in1012.5 mb 0.00 in0.0 mm 0.00 in0.0 mm 0.00 in0.0 mm
09:33 AM 73.4°F23.0°C 72.8°F22.7°C 98% Calm Calm 4.0 mph6.4 kmh 29.90 in1012.5 mb 0.00 in0.0 mm 0.00 in0.0 mm 0.00 in0.0 mm
09:38 AM 73.6°F23.1°C 73.0°F22.8°C 98% Calm Calm 4.0 mph6.4 kmh 29.90 in1012.5 mb 0.00 in0.0 mm 0.00 in0.0 mm 0.00 in0.0 mm
09:43 AM 74.0°F23.3°C 73.4°F23.0°C 98% 1.0 mph SW1.6 kmh SW 2.0 mph3.2 kmh 29.91 in1012.9 mb 0.00 in0.0 mm 0.00 in0.0 mm 0.00 in0.0 mm
09:48 AM 74.0°F23.3°C 73.4°F23.0°C 98% Calm Calm 3.0 mph4.8 kmh 29.91 in1012.9 mb 0.00 in0.0 mm 0.00 in0.0 mm 0.00 in0.0 mm
09:53 AM 74.0°F23.3°C 73.4°F23.0°C 98% 1.6 mph S2.6 kmh S 6.0 mph9.7 kmh 29.91 in1012.9 mb 0.00 in0.0 mm 0.00 in0.0 mm 0.00 in0.0 mm
09:58 AM 74.1°F23.4°C 73.5°F23.1°C 98% Calm Calm 6.0 mph9.7 kmh 29.91 in1012.9 mb 0.00 in0.0 mm 0.00 in0.0 mm 0.00 in0.0 mm
10:03 AM 74.1°F23.4°C 73.2°F22.9°C 97% 2.6 mph SW4.2 kmh SW 6.0 mph9.7 kmh 29.91 in1012.9 mb 0.00 in0.0 mm 0.00 in0.0 mm 0.00 in0.0 mm
10:08 AM 74.1°F23.4°C 73.2°F22.9°C 97% 2.2 mph SW3.5 kmh SW 6.0 mph9.7 kmh 29.91 in1012.9 mb 0.00 in0.0 mm 0.00 in0.0 mm 0.00 in0.0 mm
10:13 AM 74.2°F23.4°C 73.3°F22.9°C 97% 1.8 mph SW2.9 kmh SW 6.0 mph9.7 kmh 29.91 in1012.9 mb 0.00 in0.0 mm 0.00 in0.0 mm 0.00 in0.0 mm
10:18 AM 74.2°F23.4°C 73.3°F22.9°C 97% 1.7 mph SW2.7 kmh SW 6.0 mph9.7 kmh 29.91 in1012.9 mb 0.00 in0.0 mm 0.00 in0.0 mm 0.00 in0.0 mm
10:23 AM 74.3°F23.5°C 73.1°F22.8°C 96% 1.9 mph WSW3.1 kmh WSW 7.0 mph11.3 kmh 29.91 in1012.9 mb 0.00 in0.0 mm 0.00 in0.0 mm 0.00 in0.0 mm
10:27 AM 74.5°F23.6°C 72.9°F22.7°C 95% 3.5 mph WSW5.6 kmh WSW 7.0 mph11.3 kmh 29.91 in1012.9 mb 0.00 in0.0 mm 0.00 in0.0 mm 0.00 in0.0 mm
10:32 AM 74.8°F23.8°C 73.0°F22.8°C 94% 2.4 mph WSW3.9 kmh WSW 9.0 mph14.5 kmh 29.91 in1012.9 mb 0.00 in0.0 mm 0.00 in0.0 mm 0.00 in0.0 mm
10:37 AM 75.0°F23.9°C 72.8°F22.7°C 93% 1.9 mph SW3.1 kmh SW 9.0 mph14.5 kmh 29.91 in1012.9 mb 0.00 in0.0 mm 0.00 in0.0 mm 0.00 in0.0 mm
10:42 AM 75.4°F24.1°C 73.2°F22.9°C 93% 1.6 mph WSW2.6 kmh WSW 9.0 mph14.5 kmh 29.91 in1012.9 mb 0.00 in0.0 mm 0.00 in0.0 mm 0.00 in0.0 mm
10:47 AM 76.2°F24.6°C 73.7°F23.2°C 92% 2.0 mph SW3.2 kmh SW 9.0 mph14.5 kmh 29.90 in1012.5 mb 0.00 in0.0 mm 0.00 in0.0 mm 0.00 in0.0 mm
10:52 AM 76.8°F24.9°C 73.3°F22.9°C 89% 1.8 mph SW2.9 kmh SW 7.0 mph11.3 kmh 29.90 in1012.5 mb 0.00 in0.0 mm 0.00 in0.0 mm 0.00 in0.0 mm
10:57 AM 77.4°F25.2°C 73.6°F23.1°C 88% 3.4 mph SW5.5 kmh SW 7.0 mph11.3 kmh 29.90 in1012.5 mb 0.00 in0.0 mm 0.00 in0.0 mm 0.00 in0.0 mm
11:02 AM 77.8°F25.4°C 73.6°F23.1°C 87% Calm Calm 7.0 mph11.3 kmh 29.90 in1012.5 mb 0.00 in0.0 mm 0.00 in0.0 mm 0.00 in0.0 mm
11:07 AM 78.2°F25.7°C 73.7°F23.2°C 86% 3.1 mph WSW5.0 kmh WSW 8.0 mph12.9 kmh 29.89 in1012.2 mb 0.00 in0.0 mm 0.00 in0.0 mm 0.00 in0.0 mm
11:12 AM 79.0°F26.1°C 74.5°F23.6°C 86% 1.0 mph SW1.6 kmh SW 8.0 mph12.9 kmh 29.89 in1012.2 mb 0.00 in0.0 mm 0.00 in0.0 mm 0.00 in0.0 mm
11:17 AM 79.5°F26.4°C 74.0°F23.3°C 83% 3.3 mph WSW5.3 kmh WSW 8.0 mph12.9 kmh 29.89 in1012.2 mb 0.00 in0.0 mm 0.00 in0.0 mm 0.00 in0.0 mm
11:22 AM 79.6°F26.4°C 73.4°F23.0°C 81% 3.3 mph SW5.3 kmh SW 8.0 mph12.9 kmh 29.89 in1012.2 mb 0.00 in0.0 mm 0.00 in0.0 mm 0.00 in0.0 mm
11:27 AM 80.0°F26.7°C 74.4°F23.6°C 83% 1.0 mph WSW1.6 kmh WSW 8.0 mph12.9 kmh 29.89 in1012.2 mb 0.00 in0.0 mm 0.00 in0.0 mm 0.00 in0.0 mm
11:32 AM 80.3°F26.8°C 74.0°F23.3°C 81% 5.2 mph SW8.4 kmh SW 9.0 mph14.5 kmh 29.89 in1012.2 mb 0.00 in0.0 mm 0.00 in0.0 mm 0.00 in0.0 mm
11:37 AM 80.4°F26.9°C 73.4°F23.0°C 79% 2.3 mph SW3.7 kmh SW 9.0 mph14.5 kmh 29.89 in1012.2 mb 0.00 in0.0 mm 0.00 in0.0 mm 0.00 in0.0 mm
11:42 AM 80.5°F26.9°C 74.1°F23.4°C 81% 1.0 mph WSW1.6 kmh WSW 9.0 mph14.5 kmh 29.89 in1012.2 mb 0.00 in0.0 mm 0.00 in0.0 mm 0.00 in0.0 mm
11:47 AM 80.6°F27.0°C 73.6°F23.1°C 79% 3.2 mph WSW5.1 kmh WSW 9.0 mph14.5 kmh 29.89 in1012.2 mb 0.00 in0.0 mm 0.00 in0.0 mm 0.00 in0.0 mm
11:52 AM 81.0°F27.2°C 74.4°F23.6°C 80% 2.0 mph S3.2 kmh S 6.0 mph9.7 kmh 29.89 in1012.2 mb 0.00 in0.0 mm 0.00 in0.0 mm 0.00 in0.0 mm
11:57 AM 81.3°F27.4°C 74.3°F23.5°C 79% 3.5 mph WSW5.6 kmh WSW 7.0 mph11.3 kmh 29.88 in1011.9 mb 0.00 in0.0 mm 0.00 in0.0 mm 0.00 in0.0 mm
12:02 PM 81.1°F27.3°C 74.0°F23.3°C 79% 2.6 mph WSW4.2 kmh WSW 7.0 mph11.3 kmh 29.88 in1011.9 mb 0.00 in0.0 mm 0.00 in0.0 mm 0.00 in0.0 mm
12:07 PM 81.0°F27.2°C 73.3°F22.9°C 77% 2.5 mph WSW4.0 kmh WSW 9.0 mph14.5 kmh 29.88 in1011.9 mb 0.00 in0.0 mm 0.00 in0.0 mm 0.00 in0.0 mm
12:12 PM 81.3°F27.4°C 72.8°F22.7°C 75% 3.1 mph SW5.0 kmh SW 9.0 mph14.5 kmh 29.88 in1011.9 mb 0.00 in0.0 mm 0.00 in0.0 mm 0.00 in0.0 mm
12:17 PM 81.6°F27.6°C 73.5°F23.1°C 76% 2.1 mph SW3.4 kmh SW 9.0 mph14.5 kmh 29.88 in1011.9 mb 0.00 in0.0 mm 0.00 in0.0 mm 0.00 in0.0 mm
12:22 PM 82.2°F27.9°C 73.7°F23.2°C 75% 4.0 mph WSW6.4 kmh WSW 9.0 mph14.5 kmh 29.88 in1011.9 mb 0.00 in0.0 mm 0.00 in0.0 mm 0.00 in0.0 mm
12:27 PM 82.2°F27.9°C 73.7°F23.2°C 75% 1.6 mph W2.6 kmh W 11.0 mph17.7 kmh 29.88 in1011.9 mb 0.00 in0.0 mm 0.00 in0.0 mm 0.00 in0.0 mm
12:32 PM 82.0°F27.8°C 72.9°F22.7°C 74% 5.2 mph WSW8.4 kmh WSW 13.0 mph20.9 kmh 29.88 in1011.9 mb 0.00 in0.0 mm 0.00 in0.0 mm 0.00 in0.0 mm
12:37 PM 82.4°F28.0°C 73.5°F23.1°C 74% 2.3 mph WSW3.7 kmh WSW 13.0 mph20.9 kmh 29.88 in1011.9 mb 0.00 in0.0 mm 0.00 in0.0 mm 0.00 in0.0 mm
12:42 PM 82.9°F28.3°C 73.6°F23.1°C 73% 3.9 mph SW6.3 kmh SW 13.0 mph20.9 kmh 29.88 in1011.9 mb 0.00 in0.0 mm 0.00 in0.0 mm 0.00 in0.0 mm
12:47 PM 82.5°F28.1°C 73.6°F23.1°C 74% 2.0 mph SSW3.2 kmh SSW 11.0 mph17.7 kmh 29.87 in1011.5 mb 0.00 in0.0 mm 0.00 in0.0 mm 0.00 in0.0 mm
12:52 PM 82.7°F28.2°C 73.6°F23.1°C 74% 2.9 mph WSW4.7 kmh WSW 7.0 mph11.3 kmh 29.87 in1011.5 mb 0.00 in0.0 mm 0.00 in0.0 mm 0.00 in0.0 mm
12:57 PM 82.3°F27.9°C 72.6°F22.6°C 72% 1.0 mph W1.6 kmh W 8.0 mph12.9 kmh 29.87 in1011.5 mb 0.00 in0.0 mm 0.00 in0.0 mm 0.00 in0.0 mm
01:02 PM 82.4°F28.0°C 73.5°F23.1°C 74% 2.1 mph SW3.4 kmh SW 8.0 mph12.9 kmh 29.87 in1011.5 mb 0.00 in0.0 mm 0.00 in0.0 mm 0.00 in0.0 mm
01:07 PM 83.2°F28.4°C 73.5°F23.1°C 72% 1.5 mph S2.4 kmh S 8.0 mph12.9 kmh 29.87 in1011.5 mb 0.00 in0.0 mm 0.00 in0.0 mm 0.00 in0.0 mm
01:12 PM 83.0°F28.3°C 72.6°F22.6°C 71% 4.6 mph SW7.4 kmh SW 10.0 mph16.1 kmh 29.87 in1011.5 mb 0.00 in0.0 mm 0.00 in0.0 mm 0.00 in0.0 mm
01:17 PM 83.1°F28.4°C 73.0°F22.8°C 71% 3.6 mph W5.8 kmh W 10.0 mph16.1 kmh 29.87 in1011.5 mb 0.00 in0.0 mm 0.00 in0.0 mm 0.00 in0.0 mm
01:22 PM 83.5°F28.6°C 73.3°F22.9°C 71% 2.6 mph WSW4.2 kmh WSW 10.0 mph16.1 kmh 29.87 in1011.5 mb 0.00 in0.0 mm 0.00 in0.0 mm 0.00 in0.0 mm
01:27 PM 83.7°F28.7°C 73.5°F23.1°C 71% 3.2 mph SW5.1 kmh SW 10.0 mph16.1 kmh 29.87 in1011.5 mb 0.00 in0.0 mm 0.00 in0.0 mm 0.00 in0.0 mm
01:32 PM 83.3°F28.5°C 73.1°F22.8°C 71% 2.5 mph WSW4.0 kmh WSW 10.0 mph16.1 kmh 29.87 in1011.5 mb 0.00 in0.0 mm 0.00 in0.0 mm 0.00 in0.0 mm
01:37 PM 82.7°F28.2°C 72.3°F22.4°C 71% 3.1 mph W5.0 kmh W 9.0 mph14.5 kmh 29.87 in1011.5 mb 0.00 in0.0 mm 0.00 in0.0 mm 0.00 in0.0 mm
01:42 PM 83.0°F28.3°C 73.7°F23.2°C 73% 2.2 mph SW3.5 kmh SW 9.0 mph14.5 kmh 29.87 in1011.5 mb 0.00 in0.0 mm 0.00 in0.0 mm 0.00 in0.0 mm
01:47 PM 83.3°F28.5°C 72.7°F22.6°C 70% 4.0 mph W6.4 kmh W 9.0 mph14.5 kmh 29.86 in1011.2 mb 0.00 in0.0 mm 0.00 in0.0 mm 0.00 in0.0 mm
01:52 PM 83.9°F28.8°C 73.3°F22.9°C 70% 2.6 mph SW4.2 kmh SW 8.0 mph12.9 kmh 29.86 in1011.2 mb 0.00 in0.0 mm 0.00 in0.0 mm 0.00 in0.0 mm
01:57 PM 84.5°F29.2°C 73.5°F23.1°C 69% 3.8 mph WSW6.1 kmh WSW 10.0 mph16.1 kmh 29.86 in1011.2 mb 0.00 in0.0 mm 0.00 in0.0 mm 0.00 in0.0 mm
02:02 PM 84.5°F29.2°C 73.5°F23.1°C 69% 3.1 mph W5.0 kmh W 10.0 mph16.1 kmh 29.86 in1011.2 mb 0.00 in0.0 mm 0.00 in0.0 mm 0.00 in0.0 mm
02:07 PM 85.0°F29.4°C 73.5°F23.1°C 68% 3.3 mph WSW5.3 kmh WSW 11.0 mph17.7 kmh 29.85 in1010.8 mb 0.00 in0.0 mm 0.00 in0.0 mm 0.00 in0.0 mm
02:12 PM 85.3°F29.6°C 73.4°F23.0°C 67% 3.0 mph WSW4.8 kmh WSW 11.0 mph17.7 kmh 29.85 in1010.8 mb 0.00 in0.0 mm 0.00 in0.0 mm 0.00 in0.0 mm
02:17 PM 85.4°F29.7°C 74.3°F23.5°C 69% 2.7 mph WSW4.3 kmh WSW 11.0 mph17.7 kmh 29.84 in1010.5 mb 0.00 in0.0 mm 0.00 in0.0 mm 0.00 in0.0 mm
02:22 PM 85.6°F29.8°C 74.1°F23.4°C 68% 4.4 mph SW7.1 kmh SW 11.0 mph17.7 kmh 29.85 in1010.8 mb 0.00 in0.0 mm 0.00 in0.0 mm 0.00 in0.0 mm
02:27 PM 86.1°F30.1°C 74.6°F23.7°C 68% 1.1 mph WSW1.8 kmh WSW 10.0 mph16.1 kmh 29.84 in1010.5 mb 0.00 in0.0 mm 0.00 in0.0 mm 0.00 in0.0 mm
02:32 PM 86.4°F30.2°C 74.4°F23.6°C 67% 2.1 mph SW3.4 kmh SW 10.0 mph16.1 kmh 29.84 in1010.5 mb 0.00 in0.0 mm 0.00 in0.0 mm 0.00 in0.0 mm
02:37 PM 87.0°F30.6°C 74.5°F23.6°C 66% 2.9 mph SW4.7 kmh SW 10.0 mph16.1 kmh 29.84 in1010.5 mb 0.00 in0.0 mm 0.00 in0.0 mm 0.00 in0.0 mm
02:42 PM 86.7°F30.4°C 72.9°F22.7°C 63% 4.9 mph SW7.9 kmh SW 10.0 mph16.1 kmh 29.84 in1010.5 mb 0.00 in0.0 mm 0.00 in0.0 mm 0.00 in0.0 mm
02:47 PM 86.3°F30.2°C 72.2°F22.3°C 63% 3.7 mph SW6.0 kmh SW 12.0 mph19.3 kmh 29.84 in1010.5 mb 0.00 in0.0 mm 0.00 in0.0 mm 0.00 in0.0 mm
02:52 PM 86.2°F30.1°C 73.3°F22.9°C 65% 3.1 mph SW5.0 kmh SW 12.0 mph19.3 kmh 29.83 in1010.2 mb 0.00 in0.0 mm 0.00 in0.0 mm 0.00 in0.0 mm
02:57 PM 86.3°F30.2°C 73.0°F22.8°C 64% 3.6 mph SW5.8 kmh SW 12.0 mph19.3 kmh 29.83 in1010.2 mb 0.00 in0.0 mm 0.00 in0.0 mm 0.00 in0.0 mm
03:02 PM 86.0°F30.0°C 73.1°F22.8°C 65% 2.2 mph WSW3.5 kmh WSW 13.0 mph20.9 kmh 29.83 in1010.2 mb 0.00 in0.0 mm 0.00 in0.0 mm 0.00 in0.0 mm
03:07 PM 86.5°F30.3°C 72.7°F22.6°C 63% 3.1 mph SW5.0 kmh SW 13.0 mph20.9 kmh 29.83 in1010.2 mb 0.00 in0.0 mm 0.00 in0.0 mm 0.00 in0.0 mm
03:12 PM 86.2°F30.1°C 73.0°F22.8°C 65% 3.0 mph WSW4.8 kmh WSW 13.0 mph20.9 kmh 29.83 in1010.2 mb 0.00 in0.0 mm 0.00 in0.0 mm 0.00 in0.0 mm
03:17 PM 86.3°F30.2°C 72.5°F22.5°C 63% 3.7 mph W6.0 kmh W 13.0 mph20.9 kmh 29.82 in1009.8 mb 0.00 in0.0 mm 0.00 in0.0 mm 0.00 in0.0 mm
03:22 PM 86.4°F30.2°C 73.1°F22.8°C 64% 3.3 mph WSW5.3 kmh WSW 10.0 mph16.1 kmh 29.82 in1009.8 mb 0.00 in0.0 mm 0.00 in0.0 mm 0.00 in0.0 mm
03:27 PM 86.9°F30.5°C 72.8°F22.7°C 63% 2.3 mph W3.7 kmh W 9.0 mph14.5 kmh 29.82 in1009.8 mb 0.00 in0.0 mm 0.00 in0.0 mm 0.00 in0.0 mm
03:32 PM 86.7°F30.4°C 72.4°F22.4°C 62% 6.9 mph WSW11.1 kmh WSW 15.0 mph24.1 kmh 29.82 in1009.8 mb 0.00 in0.0 mm 0.00 in0.0 mm 0.00 in0.0 mm
03:37 PM 86.6°F30.3°C 72.3°F22.4°C 62% 2.3 mph W3.7 kmh W 15.0 mph24.1 kmh 29.82 in1009.8 mb 0.00 in0.0 mm 0.00 in0.0 mm 0.00 in0.0 mm
03:42 PM 86.9°F30.5°C 72.6°F22.6°C 62% 2.7 mph W4.3 kmh W 15.0 mph24.1 kmh 29.82 in1009.8 mb 0.00 in0.0 mm 0.00 in0.0 mm 0.00 in0.0 mm
03:47 PM 86.9°F30.5°C 71.8°F22.1°C 61% 5.6 mph WSW9.0 kmh WSW 15.0 mph24.1 kmh 29.82 in1009.8 mb 0.00 in0.0 mm 0.00 in0.0 mm 0.00 in0.0 mm
03:52 PM 87.4°F30.8°C 73.3°F22.9°C 63% 1.6 mph W2.6 kmh W 11.0 mph17.7 kmh 29.81 in1009.5 mb 0.00 in0.0 mm 0.00 in0.0 mm 0.00 in0.0 mm
03:57 PM 88.1°F31.2°C 73.7°F23.2°C 62% 1.1 mph SW1.8 kmh SW 11.0 mph17.7 kmh 29.81 in1009.5 mb 0.00 in0.0 mm 0.00 in0.0 mm 0.00 in0.0 mm
04:02 PM 87.5°F30.8°C 73.6°F23.1°C 63% 2.7 mph SW4.3 kmh SW 11.0 mph17.7 kmh 29.81 in1009.5 mb 0.00 in0.0 mm 0.00 in0.0 mm 0.00 in0.0 mm
04:07 PM 86.7°F30.4°C 73.4°F23.0°C 64% 2.9 mph SW4.7 kmh SW 8.0 mph12.9 kmh 29.81 in1009.5 mb 0.00 in0.0 mm 0.00 in0.0 mm 0.00 in0.0 mm
04:12 PM 87.2°F30.7°C 74.5°F23.6°C 66% 1.9 mph WSW3.1 kmh WSW 8.0 mph12.9 kmh 29.81 in1009.5 mb 0.00 in0.0 mm 0.00 in0.0 mm 0.00 in0.0 mm
04:17 PM 86.8°F30.4°C 73.9°F23.3°C 65% 1.9 mph SW3.1 kmh SW 9.0 mph14.5 kmh 29.81 in1009.5 mb 0.00 in0.0 mm 0.00 in0.0 mm 0.00 in0.0 mm
04:22 PM 86.6°F30.3°C 74.2°F23.4°C 66% 1.3 mph SSW2.1 kmh SSW 9.0 mph14.5 kmh 29.81 in1009.5 mb 0.00 in0.0 mm 0.00 in0.0 mm 0.00 in0.0 mm
04:26 PM 87.2°F30.7°C 73.4°F23.0°C 63% 3.0 mph SW4.8 kmh SW 9.0 mph14.5 kmh 29.81 in1009.5 mb 0.00 in0.0 mm 0.00 in0.0 mm 0.00 in0.0 mm
04:31 PM 87.2°F30.7°C 73.4°F23.0°C 63% 1.3 mph WSW2.1 kmh WSW 9.0 mph14.5 kmh 29.81 in1009.5 mb 0.00 in0.0 mm 0.00 in0.0 mm 0.00 in0.0 mm
04:36 PM 87.6°F30.9°C 72.5°F22.5°C 61% 4.9 mph SW7.9 kmh SW 9.0 mph14.5 kmh 29.81 in1009.5 mb 0.00 in0.0 mm 0.00 in0.0 mm 0.00 in0.0 mm
04:41 PM 87.5°F30.8°C 74.1°F23.4°C 64% 2.0 mph SW3.2 kmh SW 9.0 mph14.5 kmh 29.81 in1009.5 mb 0.00 in0.0 mm 0.00 in0.0 mm 0.00 in0.0 mm
04:46 PM 87.2°F30.7°C 73.8°F23.2°C 64% 3.4 mph SW5.5 kmh SW 9.0 mph14.5 kmh 29.80 in1009.1 mb 0.00 in0.0 mm 0.00 in0.0 mm 0.00 in0.0 mm
04:51 PM 86.6°F30.3°C 73.3°F22.9°C 64% 4.7 mph WSW7.6 kmh WSW 11.0 mph17.7 kmh 29.80 in1009.1 mb 0.00 in0.0 mm 0.00 in0.0 mm 0.00 in0.0 mm
04:56 PM 86.2°F30.1°C 73.5°F23.1°C 66% 2.1 mph SW3.4 kmh SW 11.0 mph17.7 kmh 29.79 in1008.8 mb 0.00 in0.0 mm 0.00 in0.0 mm 0.00 in0.0 mm
05:01 PM 86.1°F30.1°C 74.1°F23.4°C 67% 1.9 mph S3.1 kmh S 11.0 mph17.7 kmh 29.80 in1009.1 mb 0.00 in0.0 mm 0.00 in0.0 mm 0.00 in0.0 mm
05:06 PM 85.8°F29.9°C 74.3°F23.5°C 68% 2.8 mph SW4.5 kmh SW 11.0 mph17.7 kmh 29.79 in1008.8 mb 0.00 in0.0 mm 0.00 in0.0 mm 0.00 in0.0 mm
05:11 PM 85.4°F29.7°C 73.9°F23.3°C 68% 2.7 mph WSW4.3 kmh WSW 8.0 mph12.9 kmh 29.80 in1009.1 mb 0.00 in0.0 mm 0.00 in0.0 mm 0.00 in0.0 mm
05:16 PM 84.9°F29.4°C 73.6°F23.1°C 69% 2.5 mph SW4.0 kmh SW 6.0 mph9.7 kmh 29.80 in1009.1 mb 0.00 in0.0 mm 0.00 in0.0 mm 0.00 in0.0 mm
05:21 PM 84.2°F29.0°C 74.4°F23.6°C 72% 1.2 mph WSW1.9 kmh WSW 6.0 mph9.7 kmh 29.80 in1009.1 mb 0.00 in0.0 mm 0.00 in0.0 mm 0.00 in0.0 mm
05:26 PM 82.2°F27.9°C 74.4°F23.6°C 77% 5.2 mph WNW8.4 kmh WNW 10.0 mph16.1 kmh 29.81 in1009.5 mb 0.03 in0.8 mm 0.36 in9.1 mm 0.03 in0.8 mm
05:31 PM 79.0°F26.1°C 73.5°F23.1°C 83% 4.8 mph WNW7.7 kmh WNW 11.0 mph17.7 kmh 29.82 in1009.8 mb 0.05 in1.3 mm 0.24 in6.1 mm 0.05 in1.3 mm
05:36 PM 76.2°F24.6°C 71.4°F21.9°C 85% 9.8 mph WNW15.8 kmh WNW 23.0 mph37.0 kmh 29.83 in1010.2 mb 0.22 in5.6 mm 2.04 in51.8 mm 0.22 in5.6 mm
05:41 PM 73.9°F23.3°C 69.1°F20.6°C 85% 9.8 mph NW15.8 kmh NW 23.0 mph37.0 kmh 29.82 in1009.8 mb 0.37 in9.4 mm 1.80 in45.7 mm 0.37 in9.4 mm
05:46 PM 73.3°F22.9°C 68.9°F20.5°C 86% 2.1 mph NW3.4 kmh NW 23.0 mph37.0 kmh 29.82 in1009.8 mb 0.37 in9.4 mm 0.00 in0.0 mm 0.37 in9.4 mm
05:51 PM 72.8°F22.7°C 69.4°F20.8°C 89% 1.2 mph WSW1.9 kmh WSW 23.0 mph37.0 kmh 29.82 in1009.8 mb 0.38 in9.7 mm 0.12 in3.0 mm 0.38 in9.7 mm
05:56 PM 72.6°F22.6°C 69.8°F21.0°C 91% Calm Calm 19.0 mph30.6 kmh 29.82 in1009.8 mb 0.39 in9.9 mm 0.12 in3.0 mm 0.39 in9.9 mm
06:01 PM 72.7°F22.6°C 70.5°F21.4°C 93% Calm Calm 7.0 mph11.3 kmh 29.82 in1009.8 mb 0.39 in9.9 mm 0.00 in0.0 mm 0.39 in9.9 mm
06:06 PM 72.8°F22.7°C 70.6°F21.4°C 93% 2.0 mph W3.2 kmh W 6.0 mph9.7 kmh 29.82 in1009.8 mb 0.40 in10.2 mm 0.12 in3.0 mm 0.40 in10.2 mm
06:11 PM 73.7°F23.2°C 71.5°F21.9°C 93% 1.6 mph NW2.6 kmh NW 8.0 mph12.9 kmh 29.81 in1009.5 mb 0.46 in11.7 mm 0.72 in18.3 mm 0.46 in11.7 mm
06:16 PM 74.2°F23.4°C 72.0°F22.2°C 93% 1.1 mph W1.8 kmh W 8.0 mph12.9 kmh 29.80 in1009.1 mb 0.46 in11.7 mm 0.00 in0.0 mm 0.46 in11.7 mm
06:22 PM 75.1°F23.9°C 73.2°F22.9°C 94% Calm Calm 8.0 mph12.9 kmh 29.80 in1009.1 mb 0.46 in11.7 mm 0.00 in0.0 mm 0.46 in11.7 mm
06:27 PM 76.2°F24.6°C 74.7°F23.7°C 95% 1.0 mph WSW1.6 kmh WSW 6.0 mph9.7 kmh 29.80 in1009.1 mb 0.43 in10.9 mm 0.00 in0.0 mm 0.46 in11.7 mm
06:32 PM 76.5°F24.7°C 74.3°F23.5°C 93% 1.0 mph W1.6 kmh W 2.0 mph3.2 kmh 29.80 in1009.1 mb 0.38 in9.7 mm 0.00 in0.0 mm 0.46 in11.7 mm
06:37 PM 77.0°F25.0°C 75.1°F23.9°C 94% Calm Calm 2.0 mph3.2 kmh 29.80 in1009.1 mb 0.16 in4.1 mm 0.00 in0.0 mm 0.46 in11.7 mm
06:41 PM 77.2°F25.1°C 75.0°F23.9°C 93% Calm Calm 3.0 mph4.8 kmh 29.79 in1008.8 mb 0.10 in2.5 mm 0.00 in0.0 mm 0.46 in11.7 mm
06:46 PM 76.8°F24.9°C 74.3°F23.5°C 92% 1.0 mph SW1.6 kmh SW 3.0 mph4.8 kmh 29.80 in1009.1 mb 0.09 in2.3 mm 0.00 in0.0 mm 0.46 in11.7 mm
06:51 PM 76.8°F24.9°C 74.6°F23.7°C 93% 1.2 mph SW1.9 kmh SW 3.0 mph4.8 kmh 29.80 in1009.1 mb 0.08 in2.0 mm 0.00 in0.0 mm 0.46 in11.7 mm
06:56 PM 76.9°F24.9°C 75.0°F23.9°C 94% Calm Calm 3.0 mph4.8 kmh 29.80 in1009.1 mb 0.07 in1.8 mm 0.00 in0.0 mm 0.46 in11.7 mm
07:01 PM 77.1°F25.1°C 75.2°F24.0°C 94% Calm Calm 2.0 mph3.2 kmh 29.80 in1009.1 mb 0.07 in1.8 mm 0.00 in0.0 mm 0.46 in11.7 mm
07:06 PM 77.2°F25.1°C 75.7°F24.3°C 95% Calm Calm 2.0 mph3.2 kmh 29.80 in1009.1 mb 0.06 in1.5 mm 0.00 in0.0 mm 0.46 in11.7 mm
07:11 PM 77.1°F25.1°C 75.2°F24.0°C 94% Calm Calm 1.0 mph1.6 kmh 29.80 in1009.1 mb 0.00 in0.0 mm 0.00 in0.0 mm 0.46 in11.7 mm
07:16 PM 77.2°F25.1°C 75.6°F24.2°C 95% Calm Calm 1.0 mph1.6 kmh 29.80 in1009.1 mb 0.00 in0.0 mm 0.00 in0.0 mm 0.46 in11.7 mm
07:21 PM 77.3°F25.2°C 75.7°F24.3°C 95% Calm Calm 1.0 mph1.6 kmh 29.80 in1009.1 mb 0.00 in0.0 mm 0.00 in0.0 mm 0.46 in11.7 mm
07:26 PM 77.5°F25.3°C 75.9°F24.4°C 95% Calm Calm -- 29.80 in1009.1 mb 0.00 in0.0 mm 0.00 in0.0 mm 0.46 in11.7 mm
07:31 PM 77.3°F25.2°C 75.7°F24.3°C 95% Calm Calm -- 29.80 in1009.1 mb 0.00 in0.0 mm 0.00 in0.0 mm 0.46 in11.7 mm
07:36 PM 77.1°F25.1°C 75.2°F24.0°C 94% 1.0 mph SW1.6 kmh SW 1.0 mph1.6 kmh 29.80 in1009.1 mb 0.00 in0.0 mm 0.00 in0.0 mm 0.46 in11.7 mm
07:41 PM 77.0°F25.0°C 75.4°F24.1°C 95% Calm Calm 1.0 mph1.6 kmh 29.80 in1009.1 mb 0.00 in0.0 mm 0.00 in0.0 mm 0.46 in11.7 mm
07:46 PM 77.0°F25.0°C 75.4°F24.1°C 95% 1.0 mph WSW1.6 kmh WSW 1.0 mph1.6 kmh 29.81 in1009.5 mb 0.00 in0.0 mm 0.00 in0.0 mm 0.46 in11.7 mm
07:51 PM 77.0°F25.0°C 75.1°F23.9°C 94% Calm Calm 1.0 mph1.6 kmh 29.81 in1009.5 mb 0.00 in0.0 mm 0.00 in0.0 mm 0.46 in11.7 mm
07:56 PM 77.3°F25.2°C 75.4°F24.1°C 94% Calm Calm 1.0 mph1.6 kmh 29.81 in1009.5 mb 0.00 in0.0 mm 0.00 in0.0 mm 0.46 in11.7 mm
08:01 PM 77.5°F25.3°C 75.6°F24.2°C 94% Calm Calm 1.0 mph1.6 kmh 29.81 in1009.5 mb 0.00 in0.0 mm 0.00 in0.0 mm 0.46 in11.7 mm
08:06 PM 77.7°F25.4°C 75.5°F24.2°C 93% 1.0 mph WSW1.6 kmh WSW 1.0 mph1.6 kmh 29.81 in1009.5 mb 0.00 in0.0 mm 0.00 in0.0 mm 0.46 in11.7 mm
08:11 PM 77.7°F25.4°C 75.2°F24.0°C 92% Calm Calm 1.0 mph1.6 kmh 29.81 in1009.5 mb 0.00 in0.0 mm 0.00 in0.0 mm 0.46 in11.7 mm
08:16 PM 77.8°F25.4°C 75.3°F24.1°C 92% 1.0 mph SW1.6 kmh SW 1.0 mph1.6 kmh 29.81 in1009.5 mb 0.00 in0.0 mm 0.00 in0.0 mm 0.46 in11.7 mm
08:21 PM 78.0°F25.6°C 75.8°F24.3°C 93% Calm Calm 1.0 mph1.6 kmh 29.81 in1009.5 mb 0.00 in0.0 mm 0.00 in0.0 mm 0.46 in11.7 mm
08:26 PM 78.1°F25.6°C 75.9°F24.4°C 93% Calm Calm 1.0 mph1.6 kmh 29.81 in1009.5 mb 0.00 in0.0 mm 0.00 in0.0 mm 0.46 in11.7 mm
08:31 PM 78.2°F25.7°C 76.3°F24.6°C 94% Calm Calm 1.0 mph1.6 kmh 29.81 in1009.5 mb 0.00 in0.0 mm 0.00 in0.0 mm 0.46 in11.7 mm
08:36 PM 78.0°F25.6°C 76.1°F24.5°C 94% Calm Calm 1.0 mph1.6 kmh 29.81 in1009.5 mb 0.00 in0.0 mm 0.00 in0.0 mm 0.46 in11.7 mm
08:41 PM 77.8°F25.4°C 75.9°F24.4°C 94% 1.5 mph SW2.4 kmh SW 3.0 mph4.8 kmh 29.81 in1009.5 mb 0.00 in0.0 mm 0.00 in0.0 mm 0.46 in11.7 mm
08:46 PM 77.5°F25.3°C 75.6°F24.2°C 94% 1.0 mph SW1.6 kmh SW 3.0 mph4.8 kmh 29.81 in1009.5 mb 0.00 in0.0 mm 0.00 in0.0 mm 0.46 in11.7 mm
08:51 PM 77.2°F25.1°C 75.3°F24.1°C 94% 1.3 mph SW2.1 kmh SW 3.0 mph4.8 kmh 29.81 in1009.5 mb 0.00 in0.0 mm 0.00 in0.0 mm 0.46 in11.7 mm
08:56 PM 77.1°F25.1°C 75.5°F24.2°C 95% 1.0 mph SW1.6 kmh SW 3.0 mph4.8 kmh 29.81 in1009.5 mb 0.00 in0.0 mm 0.00 in0.0 mm 0.46 in11.7 mm
09:01 PM 76.9°F24.9°C 75.3°F24.1°C 95% 1.0 mph SSW1.6 kmh SSW 3.0 mph4.8 kmh 29.81 in1009.5 mb 0.00 in0.0 mm 0.00 in0.0 mm 0.46 in11.7 mm
09:06 PM 76.7°F24.8°C 75.1°F23.9°C 95% 1.3 mph S2.1 kmh S 3.0 mph4.8 kmh 29.81 in1009.5 mb 0.00 in0.0 mm 0.00 in0.0 mm 0.46 in11.7 mm
09:11 PM 76.5°F24.7°C 75.0°F23.9°C 95% 1.3 mph SW2.1 kmh SW 3.0 mph4.8 kmh 29.81 in1009.5 mb 0.00 in0.0 mm 0.00 in0.0 mm 0.46 in11.7 mm
09:16 PM 76.3°F24.6°C 74.7°F23.7°C 95% 1.4 mph SW2.3 kmh SW 4.0 mph6.4 kmh 29.81 in1009.5 mb 0.00 in0.0 mm 0.00 in0.0 mm 0.46 in11.7 mm
09:21 PM 76.2°F24.6°C 74.3°F23.5°C 94% 1.2 mph SW1.9 kmh SW 4.0 mph6.4 kmh 29.81 in1009.5 mb 0.00 in0.0 mm 0.00 in0.0 mm 0.46 in11.7 mm
09:26 PM 76.2°F24.6°C 74.3°F23.5°C 94% 1.0 mph SW1.6 kmh SW 6.0 mph9.7 kmh 29.81 in1009.5 mb 0.00 in0.0 mm 0.00 in0.0 mm 0.46 in11.7 mm
09:31 PM 76.1°F24.5°C 73.9°F23.3°C 93% 1.5 mph SW2.4 kmh SW 6.0 mph9.7 kmh 29.81 in1009.5 mb 0.00 in0.0 mm 0.00 in0.0 mm 0.46 in11.7 mm
09:36 PM 76.1°F24.5°C 73.9°F23.3°C 93% 1.5 mph WSW2.4 kmh WSW 6.0 mph9.7 kmh 29.81 in1009.5 mb 0.00 in0.0 mm 0.00 in0.0 mm 0.46 in11.7 mm
09:41 PM 76.0°F24.4°C 74.1°F23.4°C 94% Calm Calm 5.0 mph8.0 kmh 29.81 in1009.5 mb 0.00 in0.0 mm 0.00 in0.0 mm 0.46 in11.7 mm
09:46 PM 75.8°F24.3°C 73.9°F23.3°C 94% 1.1 mph S1.8 kmh S 3.0 mph4.8 kmh 29.81 in1009.5 mb 0.00 in0.0 mm 0.00 in0.0 mm 0.46 in11.7 mm
09:51 PM 75.6°F24.2°C 73.7°F23.2°C 94% 1.1 mph SW1.8 kmh SW 3.0 mph4.8 kmh 29.81 in1009.5 mb 0.00 in0.0 mm 0.00 in0.0 mm 0.46 in11.7 mm
09:56 PM 75.5°F24.2°C 73.6°F23.1°C 94% Calm Calm 3.0 mph4.8 kmh 29.80 in1009.1 mb 0.00 in0.0 mm 0.00 in0.0 mm 0.46 in11.7 mm
10:01 PM 75.4°F24.1°C 73.5°F23.1°C 94% 1.3 mph WSW2.1 kmh WSW 3.0 mph4.8 kmh 29.80 in1009.1 mb 0.00 in0.0 mm 0.00 in0.0 mm 0.46 in11.7 mm
10:06 PM 75.4°F24.1°C 73.2°F22.9°C 93% 1.8 mph SW2.9 kmh SW 4.0 mph6.4 kmh 29.80 in1009.1 mb 0.00 in0.0 mm 0.00 in0.0 mm 0.46 in11.7 mm
10:11 PM 75.5°F24.2°C 73.3°F22.9°C 93% 1.8 mph SW2.9 kmh SW 4.0 mph6.4 kmh 29.80 in1009.1 mb 0.00 in0.0 mm 0.00 in0.0 mm 0.46 in11.7 mm
10:16 PM 75.5°F24.2°C 73.3°F22.9°C 93% 1.6 mph SW2.6 kmh SW 4.0 mph6.4 kmh 29.80 in1009.1 mb 0.00 in0.0 mm 0.00 in0.0 mm 0.46 in11.7 mm
10:21 PM 75.5°F24.2°C 73.0°F22.8°C 92% 1.6 mph SW2.6 kmh SW 4.0 mph6.4 kmh 29.80 in1009.1 mb 0.00 in0.0 mm 0.00 in0.0 mm 0.46 in11.7 mm
10:26 PM 75.4°F24.1°C 72.9°F22.7°C 92% 1.0 mph SW1.6 kmh SW 4.0 mph6.4 kmh 29.81 in1009.5 mb 0.00 in0.0 mm 0.00 in0.0 mm 0.46 in11.7 mm
10:31 PM 75.3°F24.1°C 72.8°F22.7°C 92% 1.5 mph SW2.4 kmh SW 4.0 mph6.4 kmh 29.80 in1009.1 mb 0.00 in0.0 mm 0.00 in0.0 mm 0.46 in11.7 mm
10:36 PM 75.3°F24.1°C 72.8°F22.7°C 92% 1.1 mph SW1.8 kmh SW 4.0 mph6.4 kmh 29.81 in1009.5 mb 0.00 in0.0 mm 0.00 in0.0 mm 0.46 in11.7 mm
10:41 PM 75.2°F24.0°C 72.7°F22.6°C 92% 1.0 mph SW1.6 kmh SW 4.0 mph6.4 kmh 29.81 in1009.5 mb 0.00 in0.0 mm 0.00 in0.0 mm 0.46 in11.7 mm
10:46 PM 75.0°F23.9°C 72.8°F22.7°C 93% 1.0 mph SW1.6 kmh SW 3.0 mph4.8 kmh 29.81 in1009.5 mb 0.00 in0.0 mm 0.00 in0.0 mm 0.46 in11.7 mm
10:51 PM 74.9°F23.8°C 72.7°F22.6°C 93% 1.9 mph SW3.1 kmh SW 4.0 mph6.4 kmh 29.81 in1009.5 mb 0.00 in0.0 mm 0.00 in0.0 mm 0.46 in11.7 mm
10:56 PM 74.9°F23.8°C 72.7°F22.6°C 93% 1.7 mph SW2.7 kmh SW 4.0 mph6.4 kmh 29.81 in1009.5 mb 0.00 in0.0 mm 0.00 in0.0 mm 0.46 in11.7 mm
11:01 PM 74.9°F23.8°C 72.7°F22.6°C 93% 1.5 mph SW2.4 kmh SW 4.0 mph6.4 kmh 29.81 in1009.5 mb 0.00 in0.0 mm 0.00 in0.0 mm 0.46 in11.7 mm
11:06 PM 74.8°F23.8°C 72.6°F22.6°C 93% 1.4 mph SW2.3 kmh SW 5.0 mph8.0 kmh 29.81 in1009.5 mb 0.00 in0.0 mm 0.00 in0.0 mm 0.46 in11.7 mm
11:11 PM 74.9°F23.8°C 72.4°F22.4°C 92% 1.6 mph SW2.6 kmh SW 5.0 mph8.0 kmh 29.82 in1009.8 mb 0.00 in0.0 mm 0.00 in0.0 mm 0.46 in11.7 mm
11:16 PM 74.8°F23.8°C 72.3°F22.4°C 92% 1.6 mph SW2.6 kmh SW 5.0 mph8.0 kmh 29.82 in1009.8 mb 0.00 in0.0 mm 0.00 in0.0 mm 0.46 in11.7 mm
11:21 PM 74.7°F23.7°C 72.5°F22.5°C 93% 1.2 mph SW1.9 kmh SW 4.0 mph6.4 kmh 29.82 in1009.8 mb 0.00 in0.0 mm 0.00 in0.0 mm 0.46 in11.7 mm
11:26 PM 74.6°F23.7°C 72.4°F22.4°C 93% 1.4 mph SW2.3 kmh SW 4.0 mph6.4 kmh 29.82 in1009.8 mb 0.00 in0.0 mm 0.00 in0.0 mm 0.46 in11.7 mm
11:31 PM 74.4°F23.6°C 72.2°F22.3°C 93% 1.3 mph SE2.1 kmh SE 4.0 mph6.4 kmh 29.82 in1009.8 mb 0.00 in0.0 mm 0.00 in0.0 mm 0.46 in11.7 mm
11:36 PM 74.4°F23.6°C 72.2°F22.3°C 93% 2.5 mph SW4.0 kmh SW 6.0 mph9.7 kmh 29.82 in1009.8 mb 0.00 in0.0 mm 0.00 in0.0 mm 0.46 in11.7 mm
11:41 PM 74.4°F23.6°C 72.2°F22.3°C 93% 1.8 mph SW2.9 kmh SW 6.0 mph9.7 kmh 29.82 in1009.8 mb 0.00 in0.0 mm 0.00 in0.0 mm 0.46 in11.7 mm
11:46 PM 74.4°F23.6°C 72.2°F22.3°C 93% 1.7 mph SW2.7 kmh SW 6.0 mph9.7 kmh 29.82 in1009.8 mb 0.00 in0.0 mm 0.00 in0.0 mm 0.46 in11.7 mm
11:51 PM 74.3°F23.5°C 72.1°F22.3°C 93% 1.9 mph SW3.1 kmh SW 6.0 mph9.7 kmh 29.82 in1009.8 mb 0.00 in0.0 mm 0.00 in0.0 mm 0.46 in11.7 mm
11:56 PM 74.2°F23.4°C 72.0°F22.2°C 93% 1.3 mph SW2.1 kmh SW 4.0 mph6.4 kmh 29.82 in1009.8 mb 0.00 in0.0 mm 0.00 in0.0 mm 0.46 in11.7 mm